sensor_id;sensor_type;location;lat;lon;timestamp;temperature;humidity
40972;DHT22;26701;47.408;19.174;2023-10-19T00:02:06;11.40;82.20
40972;DHT22;26701;47.408;19.174;2023-10-19T00:04:32;11.40;82.30
40972;DHT22;26701;47.408;19.174;2023-10-19T00:07:02;11.40;82.50
40972;DHT22;26701;47.408;19.174;2023-10-19T00:09:31;11.40;82.20
40972;DHT22;26701;47.408;19.174;2023-10-19T00:14:28;11.50;82.10
40972;DHT22;26701;47.408;19.174;2023-10-19T00:24:33;11.60;82.30
40972;DHT22;26701;47.408;19.174;2023-10-19T00:26:59;11.60;82.30
40972;DHT22;26701;47.408;19.174;2023-10-19T00:29:31;11.60;82.20
40972;DHT22;26701;47.408;19.174;2023-10-19T00:32:01;11.60;82.20
40972;DHT22;26701;47.408;19.174;2023-10-19T00:36:54;11.60;82.40
40972;DHT22;26701;47.408;19.174;2023-10-19T00:39:21;11.60;82.40
40972;DHT22;26701;47.408;19.174;2023-10-19T00:44:14;11.60;82.40
40972;DHT22;26701;47.408;19.174;2023-10-19T00:49:29;11.60;82.80
40972;DHT22;26701;47.408;19.174;2023-10-19T00:57:12;11.60;83.70
40972;DHT22;26701;47.408;19.174;2023-10-19T00:59:38;11.50;83.50
40972;DHT22;26701;47.408;19.174;2023-10-19T01:02:20;11.50;83.60
40972;DHT22;26701;47.408;19.174;2023-10-19T01:07:21;11.60;83.80
40972;DHT22;26701;47.408;19.174;2023-10-19T01:22:09;11.60;83.50
40972;DHT22;26701;47.408;19.174;2023-10-19T01:27:08;11.60;83.70
40972;DHT22;26701;47.408;19.174;2023-10-19T01:29:36;11.60;83.80
40972;DHT22;26701;47.408;19.174;2023-10-19T01:32:05;11.60;83.90
40972;DHT22;26701;47.408;19.174;2023-10-19T01:34:34;11.60;84.40
40972;DHT22;26701;47.408;19.174;2023-10-19T01:37:00;11.60;84.50
40972;DHT22;26701;47.408;19.174;2023-10-19T01:41:55;11.70;85.00
40972;DHT22;26701;47.408;19.174;2023-10-19T01:44:23;11.70;85.30
40972;DHT22;26701;47.408;19.174;2023-10-19T01:46:50;11.60;86.00
40972;DHT22;26701;47.408;19.174;2023-10-19T01:49:16;11.60;86.00
40972;DHT22;26701;47.408;19.174;2023-10-19T01:51:51;11.60;86.30
40972;DHT22;26701;47.408;19.174;2023-10-19T01:56:50;11.60;87.00
40972;DHT22;26701;47.408;19.174;2023-10-19T01:59:16;11.60;87.40
40972;DHT22;26701;47.408;19.174;2023-10-19T02:01:42;11.60;87.30
40972;DHT22;26701;47.408;19.174;2023-10-19T02:04:11;11.60;87.60
40972;DHT22;26701;47.408;19.174;2023-10-19T02:06:38;11.70;87.20
40972;DHT22;26701;47.408;19.174;2023-10-19T02:09:10;11.70;87.00
40972;DHT22;26701;47.408;19.174;2023-10-19T02:11:50;11.70;87.20
40972;DHT22;26701;47.408;19.174;2023-10-19T02:14:18;11.70;87.60
40972;DHT22;26701;47.408;19.174;2023-10-19T02:19:12;11.60;88.40
40972;DHT22;26701;47.408;19.174;2023-10-19T02:24:09;11.60;88.90
40972;DHT22;26701;47.408;19.174;2023-10-19T02:26:35;11.60;88.80
40972;DHT22;26701;47.408;19.174;2023-10-19T02:29:03;11.50;88.80
40972;DHT22;26701;47.408;19.174;2023-10-19T02:31:38;11.40;89.00
40972;DHT22;26701;47.408;19.174;2023-10-19T02:36:33;11.50;89.90
40972;DHT22;26701;47.408;19.174;2023-10-19T02:41:25;11.60;89.90
40972;DHT22;26701;47.408;19.174;2023-10-19T02:48:53;11.60;90.00
40972;DHT22;26701;47.408;19.174;2023-10-19T02:51:18;11.60;90.30
40972;DHT22;26701;47.408;19.174;2023-10-19T02:53:44;11.60;90.40
40972;DHT22;26701;47.408;19.174;2023-10-19T02:58:40;11.60;90.60
40972;DHT22;26701;47.408;19.174;2023-10-19T03:01:12;11.50;90.80
40972;DHT22;26701;47.408;19.174;2023-10-19T03:08:35;11.50;91.00
40972;DHT22;26701;47.408;19.174;2023-10-19T03:13:30;11.50;91.20
40972;DHT22;26701;47.408;19.174;2023-10-19T03:18:26;11.50;91.40
40972;DHT22;26701;47.408;19.174;2023-10-19T03:20:53;11.50;91.50
40972;DHT22;26701;47.408;19.174;2023-10-19T03:25:46;11.40;91.80
40972;DHT22;26701;47.408;19.174;2023-10-19T03:31:08;11.40;92.00
40972;DHT22;26701;47.408;19.174;2023-10-19T03:33:34;11.40;92.40
40972;DHT22;26701;47.408;19.174;2023-10-19T03:36:02;11.30;92.20
40972;DHT22;26701;47.408;19.174;2023-10-19T03:45:58;11.30;92.60
40972;DHT22;26701;47.408;19.174;2023-10-19T03:48:25;11.20;93.00
40972;DHT22;26701;47.408;19.174;2023-10-19T03:50:59;11.10;93.10
40972;DHT22;26701;47.408;19.174;2023-10-19T04:03:14;11.20;93.40
40972;DHT22;26701;47.408;19.174;2023-10-19T04:05:40;11.20;93.70
40972;DHT22;26701;47.408;19.174;2023-10-19T04:08:06;11.20;93.80
40972;DHT22;26701;47.408;19.174;2023-10-19T04:10:46;11.10;93.60
40972;DHT22;26701;47.408;19.174;2023-10-19T04:18:23;11.20;93.80
40972;DHT22;26701;47.408;19.174;2023-10-19T04:23:23;11.20;93.90
40972;DHT22;26701;47.408;19.174;2023-10-19T04:25:53;11.20;94.00
40972;DHT22;26701;47.408;19.174;2023-10-19T04:28:22;11.10;94.10
40972;DHT22;26701;47.408;19.174;2023-10-19T04:35:52;11.20;94.30
40972;DHT22;26701;47.408;19.174;2023-10-19T04:43:13;11.20;94.10
40972;DHT22;26701;47.408;19.174;2023-10-19T04:48:04;11.20;94.30
40972;DHT22;26701;47.408;19.174;2023-10-19T04:50:31;11.10;94.20
40972;DHT22;26701;47.408;19.174;2023-10-19T04:52:57;11.10;94.20
40972;DHT22;26701;47.408;19.174;2023-10-19T04:55:22;11.20;94.30
40972;DHT22;26701;47.408;19.174;2023-10-19T04:57:48;11.20;94.60
40972;DHT22;26701;47.408;19.174;2023-10-19T05:00:14;11.20;94.60
40972;DHT22;26701;47.408;19.174;2023-10-19T05:05:06;11.10;94.60
40972;DHT22;26701;47.408;19.174;2023-10-19T05:07:32;11.10;94.60
40972;DHT22;26701;47.408;19.174;2023-10-19T05:12:24;11.10;94.70
40972;DHT22;26701;47.408;19.174;2023-10-19T05:14:50;11.10;94.80
40972;DHT22;26701;47.408;19.174;2023-10-19T05:24:38;11.10;95.10
40972;DHT22;26701;47.408;19.174;2023-10-19T05:31:56;11.10;95.10
40972;DHT22;26701;47.408;19.174;2023-10-19T05:34:23;11.10;95.00
40972;DHT22;26701;47.408;19.174;2023-10-19T05:36:49;11.10;95.20
40972;DHT22;26701;47.408;19.174;2023-10-19T05:39:15;11.10;95.30
40972;DHT22;26701;47.408;19.174;2023-10-19T05:41:41;11.10;95.30
40972;DHT22;26701;47.408;19.174;2023-10-19T05:44:07;11.10;95.40
40972;DHT22;26701;47.408;19.174;2023-10-19T05:46:32;11.10;95.30
40972;DHT22;26701;47.408;19.174;2023-10-19T05:48:58;11.20;95.40
40972;DHT22;26701;47.408;19.174;2023-10-19T05:53:51;11.10;95.60
40972;DHT22;26701;47.408;19.174;2023-10-19T05:56:18;11.10;95.40
40972;DHT22;26701;47.408;19.174;2023-10-19T06:01:16;11.20;95.50
40972;DHT22;26701;47.408;19.174;2023-10-19T06:03:43;11.20;95.50
40972;DHT22;26701;47.408;19.174;2023-10-19T06:06:08;11.20;95.50
40972;DHT22;26701;47.408;19.174;2023-10-19T06:13:28;11.20;95.60
40972;DHT22;26701;47.408;19.174;2023-10-19T06:15:54;11.30;95.50
40972;DHT22;26701;47.408;19.174;2023-10-19T06:23:13;11.30;95.80
40972;DHT22;26701;47.408;19.174;2023-10-19T06:25:39;11.30;95.90
40972;DHT22;26701;47.408;19.174;2023-10-19T06:28:05;11.30;96.00
40972;DHT22;26701;47.408;19.174;2023-10-19T06:37:52;11.40;96.10
40972;DHT22;26701;47.408;19.174;2023-10-19T06:40:18;11.40;96.00
40972;DHT22;26701;47.408;19.174;2023-10-19T06:42:44;11.60;96.10
40972;DHT22;26701;47.408;19.174;2023-10-19T06:47:42;11.40;96.00
40972;DHT22;26701;47.408;19.174;2023-10-19T06:50:10;11.50;96.30
40972;DHT22;26701;47.408;19.174;2023-10-19T06:52:37;11.50;96.30
40972;DHT22;26701;47.408;19.174;2023-10-19T06:55:03;11.60;96.40
40972;DHT22;26701;47.408;19.174;2023-10-19T06:57:30;11.60;96.40
40972;DHT22;26701;47.408;19.174;2023-10-19T07:02:22;11.60;96.40
40972;DHT22;26701;47.408;19.174;2023-10-19T07:04:48;11.60;96.60
40972;DHT22;26701;47.408;19.174;2023-10-19T07:07:13;11.60;96.50
40972;DHT22;26701;47.408;19.174;2023-10-19T07:09:39;11.70;96.50
40972;DHT22;26701;47.408;19.174;2023-10-19T07:12:06;11.70;96.50
40972;DHT22;26701;47.408;19.174;2023-10-19T07:14:33;11.70;96.60
40972;DHT22;26701;47.408;19.174;2023-10-19T07:16:59;11.70;96.70
40972;DHT22;26701;47.408;19.174;2023-10-19T07:21:51;11.70;96.60
40972;DHT22;26701;47.408;19.174;2023-10-19T07:26:49;11.80;96.40
40972;DHT22;26701;47.408;19.174;2023-10-19T07:29:44;11.80;96.40
40972;DHT22;26701;47.408;19.174;2023-10-19T07:32:10;11.90;96.80
40972;DHT22;26701;47.408;19.174;2023-10-19T07:34:39;11.90;96.70
40972;DHT22;26701;47.408;19.174;2023-10-19T07:37:05;11.90;96.70
40972;DHT22;26701;47.408;19.174;2023-10-19T07:41:59;12.00;96.80
40972;DHT22;26701;47.408;19.174;2023-10-19T07:46:51;11.90;96.60
40972;DHT22;26701;47.408;19.174;2023-10-19T07:49:17;12.10;96.60
40972;DHT22;26701;47.408;19.174;2023-10-19T07:54:09;12.10;96.50
40972;DHT22;26701;47.408;19.174;2023-10-19T07:56:34;12.20;96.70
40972;DHT22;26701;47.408;19.174;2023-10-19T07:59:00;12.10;96.80
40972;DHT22;26701;47.408;19.174;2023-10-19T08:03:53;12.20;96.80
40972;DHT22;26701;47.408;19.174;2023-10-19T08:06:20;12.30;96.80
40972;DHT22;26701;47.408;19.174;2023-10-19T08:08:45;12.40;96.70
40972;DHT22;26701;47.408;19.174;2023-10-19T08:11:11;12.40;96.60
40972;DHT22;26701;47.408;19.174;2023-10-19T08:13:38;12.40;96.60
40972;DHT22;26701;47.408;19.174;2023-10-19T08:16:05;12.40;96.80
40972;DHT22;26701;47.408;19.174;2023-10-19T08:18:32;12.40;97.00
40972;DHT22;26701;47.408;19.174;2023-10-19T08:21:00;12.40;97.20
40972;DHT22;26701;47.408;19.174;2023-10-19T08:28:19;12.50;97.00
40972;DHT22;26701;47.408;19.174;2023-10-19T08:33:22;12.70;96.80
40972;DHT22;26701;47.408;19.174;2023-10-19T08:35:48;12.70;96.80
40972;DHT22;26701;47.408;19.174;2023-10-19T08:38:13;12.80;96.70
40972;DHT22;26701;47.408;19.174;2023-10-19T08:40:39;12.80;96.40
40972;DHT22;26701;47.408;19.174;2023-10-19T08:43:05;12.90;96.60
40972;DHT22;26701;47.408;19.174;2023-10-19T08:45:33;12.90;96.50
40972;DHT22;26701;47.408;19.174;2023-10-19T08:48:00;12.90;96.70
40972;DHT22;26701;47.408;19.174;2023-10-19T08:50:27;12.90;96.80
40972;DHT22;26701;47.408;19.174;2023-10-19T08:52:55;13.00;96.70
40972;DHT22;26701;47.408;19.174;2023-10-19T08:55:20;13.10;96.50
40972;DHT22;26701;47.408;19.174;2023-10-19T08:57:48;13.00;96.40
40972;DHT22;26701;47.408;19.174;2023-10-19T09:02:43;13.10;96.50
40972;DHT22;26701;47.408;19.174;2023-10-19T09:07:54;13.40;96.40
40972;DHT22;26701;47.408;19.174;2023-10-19T09:10:27;13.70;96.10
40972;DHT22;26701;47.408;19.174;2023-10-19T09:13:00;13.90;96.10
40972;DHT22;26701;47.408;19.174;2023-10-19T09:15:27;14.00;95.90
40972;DHT22;26701;47.408;19.174;2023-10-19T09:17:54;14.20;95.90
40972;DHT22;26701;47.408;19.174;2023-10-19T09:22:55;14.40;95.70
40972;DHT22;26701;47.408;19.174;2023-10-19T09:25:23;14.50;95.50
40972;DHT22;26701;47.408;19.174;2023-10-19T09:27:49;14.70;95.40
40972;DHT22;26701;47.408;19.174;2023-10-19T09:30:15;14.90;95.10
40972;DHT22;26701;47.408;19.174;2023-10-19T09:32:46;15.10;95.00
40972;DHT22;26701;47.408;19.174;2023-10-19T09:35:13;15.20;95.00
40972;DHT22;26701;47.408;19.174;2023-10-19T09:37:43;15.40;94.50
40972;DHT22;26701;47.408;19.174;2023-10-19T09:40:09;15.70;94.50
40972;DHT22;26701;47.408;19.174;2023-10-19T09:42:39;16.00;94.30
40972;DHT22;26701;47.408;19.174;2023-10-19T09:45:11;16.30;93.70
40972;DHT22;26701;47.408;19.174;2023-10-19T09:47:38;16.50;93.60
40972;DHT22;26701;47.408;19.174;2023-10-19T09:50:07;16.40;93.30
40972;DHT22;26701;47.408;19.174;2023-10-19T09:52:33;16.40;93.50
40972;DHT22;26701;47.408;19.174;2023-10-19T09:57:56;16.70;93.10
40972;DHT22;26701;47.408;19.174;2023-10-19T10:02:50;17.20;93.00
40972;DHT22;26701;47.408;19.174;2023-10-19T10:10:48;18.40;91.70
40972;DHT22;26701;47.408;19.174;2023-10-19T10:13:48;18.70;91.60
40972;DHT22;26701;47.408;19.174;2023-10-19T10:16:06;19.00;90.80
40972;DHT22;26701;47.408;19.174;2023-10-19T10:18:33;19.10;90.50
40972;DHT22;26701;47.408;19.174;2023-10-19T10:21:06;19.20;90.50
40972;DHT22;26701;47.408;19.174;2023-10-19T10:26:08;19.60;90.00
40972;DHT22;26701;47.408;19.174;2023-10-19T10:28:34;19.80;89.30
40972;DHT22;26701;47.408;19.174;2023-10-19T10:33:39;20.30;88.60
40972;DHT22;26701;47.408;19.174;2023-10-19T10:43:24;21.10;85.80
40972;DHT22;26701;47.408;19.174;2023-10-19T10:45:50;21.20;86.00
40972;DHT22;26701;47.408;19.174;2023-10-19T10:48:16;21.50;86.20
40972;DHT22;26701;47.408;19.174;2023-10-19T10:50:42;21.60;86.10
40972;DHT22;26701;47.408;19.174;2023-10-19T10:53:10;21.90;84.60
40972;DHT22;26701;47.408;19.174;2023-10-19T10:55:36;22.20;85.00
40972;DHT22;26701;47.408;19.174;2023-10-19T10:58:02;22.60;83.20
40972;DHT22;26701;47.408;19.174;2023-10-19T11:00:28;22.90;83.30
40972;DHT22;26701;47.408;19.174;2023-10-19T11:02:59;23.40;81.70
40972;DHT22;26701;47.408;19.174;2023-10-19T11:05:25;23.80;80.90
40972;DHT22;26701;47.408;19.174;2023-10-19T11:10:29;24.30;79.50
40972;DHT22;26701;47.408;19.174;2023-10-19T11:13:04;24.50;79.20
40972;DHT22;26701;47.408;19.174;2023-10-19T11:15:31;24.60;78.20
40972;DHT22;26701;47.408;19.174;2023-10-19T11:17:58;24.30;77.10
40972;DHT22;26701;47.408;19.174;2023-10-19T11:20:25;23.90;78.40
40972;DHT22;26701;47.408;19.174;2023-10-19T11:22:53;23.70;79.30
40972;DHT22;26701;47.408;19.174;2023-10-19T11:25:25;23.50;79.60
40972;DHT22;26701;47.408;19.174;2023-10-19T11:30:27;23.70;79.10
40972;DHT22;26701;47.408;19.174;2023-10-19T11:32:54;23.60;79.10
40972;DHT22;26701;47.408;19.174;2023-10-19T11:35:26;23.40;79.10
40972;DHT22;26701;47.408;19.174;2023-10-19T11:37:53;23.10;79.70
40972;DHT22;26701;47.408;19.174;2023-10-19T11:40:20;22.90;79.90
40972;DHT22;26701;47.408;19.174;2023-10-19T11:42:45;22.60;80.40
40972;DHT22;26701;47.408;19.174;2023-10-19T11:45:12;22.50;81.00
40972;DHT22;26701;47.408;19.174;2023-10-19T11:47:38;22.20;81.20
40972;DHT22;26701;47.408;19.174;2023-10-19T11:50:04;22.00;81.60
40972;DHT22;26701;47.408;19.174;2023-10-19T11:52:29;21.70;82.30
40972;DHT22;26701;47.408;19.174;2023-10-19T11:54:56;21.60;82.70
40972;DHT22;26701;47.408;19.174;2023-10-19T11:57:23;21.40;82.90
40972;DHT22;26701;47.408;19.174;2023-10-19T11:59:48;21.20;83.90
40972;DHT22;26701;47.408;19.174;2023-10-19T12:02:18;20.90;84.30
40972;DHT22;26701;47.408;19.174;2023-10-19T12:04:44;20.90;84.50
40972;DHT22;26701;47.408;19.174;2023-10-19T12:07:10;20.80;85.00
40972;DHT22;26701;47.408;19.174;2023-10-19T12:09:36;20.70;85.20
40972;DHT22;26701;47.408;19.174;2023-10-19T12:12:02;20.70;85.50
40972;DHT22;26701;47.408;19.174;2023-10-19T12:14:31;20.60;86.00
40972;DHT22;26701;47.408;19.174;2023-10-19T12:16:59;20.50;86.20
40972;DHT22;26701;47.408;19.174;2023-10-19T12:19:27;20.50;86.50
40972;DHT22;26701;47.408;19.174;2023-10-19T12:21:55;20.40;86.40
40972;DHT22;26701;47.408;19.174;2023-10-19T12:24:21;20.40;86.70
40972;DHT22;26701;47.408;19.174;2023-10-19T12:26:46;20.40;86.90
40972;DHT22;26701;47.408;19.174;2023-10-19T12:29:12;20.30;86.80
40972;DHT22;26701;47.408;19.174;2023-10-19T12:31:40;20.30;87.50
40972;DHT22;26701;47.408;19.174;2023-10-19T12:34:06;20.20;88.00
40972;DHT22;26701;47.408;19.174;2023-10-19T12:36:32;20.10;88.20
40972;DHT22;26701;47.408;19.174;2023-10-19T12:38:57;20.00;88.50
40972;DHT22;26701;47.408;19.174;2023-10-19T12:41:23;19.90;88.70
40972;DHT22;26701;47.408;19.174;2023-10-19T12:43:53;19.90;89.40
40972;DHT22;26701;47.408;19.174;2023-10-19T12:46:23;19.90;89.10
40972;DHT22;26701;47.408;19.174;2023-10-19T12:48:51;19.80;89.40
40972;DHT22;26701;47.408;19.174;2023-10-19T12:51:16;19.70;89.70
40972;DHT22;26701;47.408;19.174;2023-10-19T12:56:17;19.80;90.10
40972;DHT22;26701;47.408;19.174;2023-10-19T12:58:43;19.80;90.10
40972;DHT22;26701;47.408;19.174;2023-10-19T13:01:09;19.80;90.30
40972;DHT22;26701;47.408;19.174;2023-10-19T13:03:42;19.80;90.40
40972;DHT22;26701;47.408;19.174;2023-10-19T13:06:13;19.80;90.50
40972;DHT22;26701;47.408;19.174;2023-10-19T13:08:39;19.80;90.60
40972;DHT22;26701;47.408;19.174;2023-10-19T13:11:08;19.90;90.50
40972;DHT22;26701;47.408;19.174;2023-10-19T13:13:34;20.00;90.60
40972;DHT22;26701;47.408;19.174;2023-10-19T13:16:01;20.00;90.60
40972;DHT22;26701;47.408;19.174;2023-10-19T13:18:31;20.10;90.70
40972;DHT22;26701;47.408;19.174;2023-10-19T13:21:02;20.20;90.70
40972;DHT22;26701;47.408;19.174;2023-10-19T13:23:33;20.30;90.60
40972;DHT22;26701;47.408;19.174;2023-10-19T13:28:40;20.40;90.20
40972;DHT22;26701;47.408;19.174;2023-10-19T13:31:07;20.60;90.10
40972;DHT22;26701;47.408;19.174;2023-10-19T13:33:34;20.70;90.00
40972;DHT22;26701;47.408;19.174;2023-10-19T13:36:00;20.80;90.00
40972;DHT22;26701;47.408;19.174;2023-10-19T13:38:26;20.80;89.90
40972;DHT22;26701;47.408;19.174;2023-10-19T13:40:51;20.80;89.90
40972;DHT22;26701;47.408;19.174;2023-10-19T13:43:18;20.70;89.60
40972;DHT22;26701;47.408;19.174;2023-10-19T13:45:45;20.60;89.70
40972;DHT22;26701;47.408;19.174;2023-10-19T13:48:11;20.50;89.70
40972;DHT22;26701;47.408;19.174;2023-10-19T13:50:47;20.50;90.10
40972;DHT22;26701;47.408;19.174;2023-10-19T13:53:18;20.30;90.40
40972;DHT22;26701;47.408;19.174;2023-10-19T13:58:10;20.10;90.60
40972;DHT22;26701;47.408;19.174;2023-10-19T14:00:36;20.00;91.00
40972;DHT22;26701;47.408;19.174;2023-10-19T14:03:05;19.90;90.80
40972;DHT22;26701;47.408;19.174;2023-10-19T14:05:40;19.70;90.90
40972;DHT22;26701;47.408;19.174;2023-10-19T14:08:08;19.60;91.00
40972;DHT22;26701;47.408;19.174;2023-10-19T14:10:34;19.40;91.30
40972;DHT22;26701;47.408;19.174;2023-10-19T14:13:00;19.20;91.50
40972;DHT22;26701;47.408;19.174;2023-10-19T14:15:26;19.20;91.60
40972;DHT22;26701;47.408;19.174;2023-10-19T14:17:55;19.10;91.70
40972;DHT22;26701;47.408;19.174;2023-10-19T14:20:21;19.00;91.90
40972;DHT22;26701;47.408;19.174;2023-10-19T14:22:50;19.00;91.90
40972;DHT22;26701;47.408;19.174;2023-10-19T14:25:16;18.90;92.10
40972;DHT22;26701;47.408;19.174;2023-10-19T14:30:14;18.80;92.30
40972;DHT22;26701;47.408;19.174;2023-10-19T14:32:40;18.60;92.40
40972;DHT22;26701;47.408;19.174;2023-10-19T14:35:10;18.60;92.50
40972;DHT22;26701;47.408;19.174;2023-10-19T14:37:40;18.50;92.60
40972;DHT22;26701;47.408;19.174;2023-10-19T14:40:07;18.40;92.60
40972;DHT22;26701;47.408;19.174;2023-10-19T14:47:28;18.30;93.10
40972;DHT22;26701;47.408;19.174;2023-10-19T14:49:53;18.20;93.20
40972;DHT22;26701;47.408;19.174;2023-10-19T14:54:48;18.10;93.50
40972;DHT22;26701;47.408;19.174;2023-10-19T14:57:15;18.00;93.60
40972;DHT22;26701;47.408;19.174;2023-10-19T14:59:41;18.00;93.70
40972;DHT22;26701;47.408;19.174;2023-10-19T15:02:07;17.80;93.80
40972;DHT22;26701;47.408;19.174;2023-10-19T15:04:38;17.90;93.70
40972;DHT22;26701;47.408;19.174;2023-10-19T15:07:03;17.90;93.70
40972;DHT22;26701;47.408;19.174;2023-10-19T15:09:29;17.80;93.80
40972;DHT22;26701;47.408;19.174;2023-10-19T15:11:55;17.80;93.90
40972;DHT22;26701;47.408;19.174;2023-10-19T15:14:21;17.70;94.10
40972;DHT22;26701;47.408;19.174;2023-10-19T15:16:46;17.60;94.10
40972;DHT22;26701;47.408;19.174;2023-10-19T15:19:12;17.50;94.30
40972;DHT22;26701;47.408;19.174;2023-10-19T15:21:40;17.40;94.60
40972;DHT22;26701;47.408;19.174;2023-10-19T15:24:07;17.30;94.80
40972;DHT22;26701;47.408;19.174;2023-10-19T15:26:33;17.20;95.00
40972;DHT22;26701;47.408;19.174;2023-10-19T15:31:25;17.10;95.30
40972;DHT22;26701;47.408;19.174;2023-10-19T15:33:51;17.00;95.50
40972;DHT22;26701;47.408;19.174;2023-10-19T15:36:16;16.90;95.70
40972;DHT22;26701;47.408;19.174;2023-10-19T15:38:42;16.90;95.80
40972;DHT22;26701;47.408;19.174;2023-10-19T15:41:08;16.80;96.00
40972;DHT22;26701;47.408;19.174;2023-10-19T15:43:35;16.70;96.00
40972;DHT22;26701;47.408;19.174;2023-10-19T15:48:30;16.60;96.20
40972;DHT22;26701;47.408;19.174;2023-10-19T15:50:56;16.60;96.50
40972;DHT22;26701;47.408;19.174;2023-10-19T15:55:48;16.60;96.50
40972;DHT22;26701;47.408;19.174;2023-10-19T15:58:14;16.50;96.60
40972;DHT22;26701;47.408;19.174;2023-10-19T16:00:39;16.40;96.60
40972;DHT22;26701;47.408;19.174;2023-10-19T16:03:05;16.40;96.80
40972;DHT22;26701;47.408;19.174;2023-10-19T16:05:31;16.40;96.90
40972;DHT22;26701;47.408;19.174;2023-10-19T16:07:57;16.30;97.00
40972;DHT22;26701;47.408;19.174;2023-10-19T16:10:22;16.30;97.10
40972;DHT22;26701;47.408;19.174;2023-10-19T16:12:48;16.20;97.00
40972;DHT22;26701;47.408;19.174;2023-10-19T16:15:14;16.20;97.20
40972;DHT22;26701;47.408;19.174;2023-10-19T16:17:39;16.20;97.10
40972;DHT22;26701;47.408;19.174;2023-10-19T16:22:32;16.10;97.10
40972;DHT22;26701;47.408;19.174;2023-10-19T16:24:59;16.10;97.20
40972;DHT22;26701;47.408;19.174;2023-10-19T16:27:24;16.10;97.10
40972;DHT22;26701;47.408;19.174;2023-10-19T16:29:53;16.10;97.40
40972;DHT22;26701;47.408;19.174;2023-10-19T16:32:18;16.10;97.20
40972;DHT22;26701;47.408;19.174;2023-10-19T16:34:47;16.10;97.20
40972;DHT22;26701;47.408;19.174;2023-10-19T16:37:12;16.00;97.20
40972;DHT22;26701;47.408;19.174;2023-10-19T16:39:38;16.00;97.30
40972;DHT22;26701;47.408;19.174;2023-10-19T16:42:04;16.00;97.30
40972;DHT22;26701;47.408;19.174;2023-10-19T16:44:29;16.00;97.30
40972;DHT22;26701;47.408;19.174;2023-10-19T16:46:55;16.00;97.20
40972;DHT22;26701;47.408;19.174;2023-10-19T16:49:21;16.00;97.40
40972;DHT22;26701;47.408;19.174;2023-10-19T16:51:46;15.90;97.50
40972;DHT22;26701;47.408;19.174;2023-10-19T16:54:15;15.90;97.60
40972;DHT22;26701;47.408;19.174;2023-10-19T16:56:41;15.90;97.60
40972;DHT22;26701;47.408;19.174;2023-10-19T16:59:16;15.90;97.70
40972;DHT22;26701;47.408;19.174;2023-10-19T17:04:09;15.80;97.80
40972;DHT22;26701;47.408;19.174;2023-10-19T17:06:35;15.80;97.80
40972;DHT22;26701;47.408;19.174;2023-10-19T17:09:35;15.90;98.10
40972;DHT22;26701;47.408;19.174;2023-10-19T17:11:54;15.80;98.10
40972;DHT22;26701;47.408;19.174;2023-10-19T17:14:19;15.80;98.20
40972;DHT22;26701;47.408;19.174;2023-10-19T17:16:54;15.80;98.40
40972;DHT22;26701;47.408;19.174;2023-10-19T17:19:21;15.70;98.20
40972;DHT22;26701;47.408;19.174;2023-10-19T17:21:48;15.70;98.30
40972;DHT22;26701;47.408;19.174;2023-10-19T17:26:42;15.70;98.50
40972;DHT22;26701;47.408;19.174;2023-10-19T17:29:07;15.60;98.70
40972;DHT22;26701;47.408;19.174;2023-10-19T17:31:34;15.60;98.60
40972;DHT22;26701;47.408;19.174;2023-10-19T17:34:00;15.60;98.60
40972;DHT22;26701;47.408;19.174;2023-10-19T17:36:27;15.60;98.50
40972;DHT22;26701;47.408;19.174;2023-10-19T17:38:53;15.60;98.60
40972;DHT22;26701;47.408;19.174;2023-10-19T17:41:19;15.60;98.60
40972;DHT22;26701;47.408;19.174;2023-10-19T17:46:11;15.60;98.60
40972;DHT22;26701;47.408;19.174;2023-10-19T17:51:09;15.60;98.40
40972;DHT22;26701;47.408;19.174;2023-10-19T17:53:35;15.60;98.60
40972;DHT22;26701;47.408;19.174;2023-10-19T17:56:01;15.60;98.60
40972;DHT22;26701;47.408;19.174;2023-10-19T18:00:54;15.50;98.70
40972;DHT22;26701;47.408;19.174;2023-10-19T18:03:19;15.50;98.70
40972;DHT22;26701;47.408;19.174;2023-10-19T18:05:45;15.60;98.80
40972;DHT22;26701;47.408;19.174;2023-10-19T18:08:22;15.50;98.80
40972;DHT22;26701;47.408;19.174;2023-10-19T18:10:47;15.50;98.90
40972;DHT22;26701;47.408;19.174;2023-10-19T18:15:39;15.30;99.20
40972;DHT22;26701;47.408;19.174;2023-10-19T18:18:05;15.30;99.30
40972;DHT22;26701;47.408;19.174;2023-10-19T18:20:34;15.40;99.50
40972;DHT22;26701;47.408;19.174;2023-10-19T18:25:25;15.40;99.40
40972;DHT22;26701;47.408;19.174;2023-10-19T18:27:53;15.40;99.20
40972;DHT22;26701;47.408;19.174;2023-10-19T18:30:19;15.40;99.30
40972;DHT22;26701;47.408;19.174;2023-10-19T18:32:45;15.40;99.20
40972;DHT22;26701;47.408;19.174;2023-10-19T18:35:13;15.40;99.20
40972;DHT22;26701;47.408;19.174;2023-10-19T18:40:05;15.40;99.20
40972;DHT22;26701;47.408;19.174;2023-10-19T18:42:31;15.40;99.10
40972;DHT22;26701;47.408;19.174;2023-10-19T18:44:57;15.40;99.20
40972;DHT22;26701;47.408;19.174;2023-10-19T18:47:24;15.40;99.10
40972;DHT22;26701;47.408;19.174;2023-10-19T18:49:54;15.40;99.00
40972;DHT22;26701;47.408;19.174;2023-10-19T18:52:20;15.50;99.10
40972;DHT22;26701;47.408;19.174;2023-10-19T18:54:46;15.40;98.90
40972;DHT22;26701;47.408;19.174;2023-10-19T18:57:11;15.40;98.90
40972;DHT22;26701;47.408;19.174;2023-10-19T18:59:37;15.50;98.90
40972;DHT22;26701;47.408;19.174;2023-10-19T19:02:06;15.20;98.90
40972;DHT22;26701;47.408;19.174;2023-10-19T19:04:32;15.30;98.90
40972;DHT22;26701;47.408;19.174;2023-10-19T19:06:59;15.20;99.00
40972;DHT22;26701;47.408;19.174;2023-10-19T19:09:27;15.20;98.90
40972;DHT22;26701;47.408;19.174;2023-10-19T19:14:19;15.10;99.20
40972;DHT22;26701;47.408;19.174;2023-10-19T19:16:44;15.10;99.10
40972;DHT22;26701;47.408;19.174;2023-10-19T19:19:11;15.00;99.30
40972;DHT22;26701;47.408;19.174;2023-10-19T19:21:38;14.90;99.30
40972;DHT22;26701;47.408;19.174;2023-10-19T19:24:08;14.90;99.40
40972;DHT22;26701;47.408;19.174;2023-10-19T19:26:34;14.90;99.60
40972;DHT22;26701;47.408;19.174;2023-10-19T19:31:26;14.80;99.70
40972;DHT22;26701;47.408;19.174;2023-10-19T19:33:55;14.70;99.80
40972;DHT22;26701;47.408;19.174;2023-10-19T19:36:20;14.80;99.80
40972;DHT22;26701;47.408;19.174;2023-10-19T19:38:46;14.70;99.60
40972;DHT22;26701;47.408;19.174;2023-10-19T19:41:12;14.60;99.70
40972;DHT22;26701;47.408;19.174;2023-10-19T19:43:38;14.60;99.70
40972;DHT22;26701;47.408;19.174;2023-10-19T19:46:04;14.70;99.90